sensor_id;sensor_type;location;lat;lon;timestamp;temperature;humidity
50556;DHT22;36508;52.512;13.450;2024-02-26T00:01:37;6.20;99.90
50556;DHT22;36508;52.512;13.450;2024-02-26T00:04:03;6.30;99.90
50556;DHT22;36508;52.512;13.450;2024-02-26T00:06:31;6.30;99.90
50556;DHT22;36508;52.512;13.450;2024-02-26T00:08:57;6.20;99.90
50556;DHT22;36508;52.512;13.450;2024-02-26T00:11:22;6.20;99.90
50556;DHT22;36508;52.512;13.450;2024-02-26T00:13:48;6.30;99.90
50556;DHT22;36508;52.512;13.450;2024-02-26T00:18:56;6.30;99.90
50556;DHT22;36508;52.512;13.450;2024-02-26T00:21:22;6.40;99.90
50556;DHT22;36508;52.512;13.450;2024-02-26T00:23:49;6.40;99.90
50556;DHT22;36508;52.512;13.450;2024-02-26T00:26:16;6.40;99.90
50556;DHT22;36508;52.512;13.450;2024-02-26T00:28:42;6.50;99.90
50556;DHT22;36508;52.512;13.450;2024-02-26T00:31:08;6.60;99.90
50556;DHT22;36508;52.512;13.450;2024-02-26T00:33:34;6.40;99.90
50556;DHT22;36508;52.512;13.450;2024-02-26T00:35:59;6.00;99.90
50556;DHT22;36508;52.512;13.450;2024-02-26T00:38:25;5.90;99.90
50556;DHT22;36508;52.512;13.450;2024-02-26T00:40:50;5.80;99.90
50556;DHT22;36508;52.512;13.450;2024-02-26T00:43:16;5.60;99.90
50556;DHT22;36508;52.512;13.450;2024-02-26T00:45:41;5.40;99.90
50556;DHT22;36508;52.512;13.450;2024-02-26T00:48:07;5.60;99.90
50556;DHT22;36508;52.512;13.450;2024-02-26T00:50:33;5.70;99.90
50556;DHT22;36508;52.512;13.450;2024-02-26T00:53:02;5.80;99.90
50556;DHT22;36508;52.512;13.450;2024-02-26T00:55:28;5.90;99.90
50556;DHT22;36508;52.512;13.450;2024-02-26T00:57:53;5.90;99.90
50556;DHT22;36508;52.512;13.450;2024-02-26T01:00:19;6.00;99.90
50556;DHT22;36508;52.512;13.450;2024-02-26T01:02:44;6.00;99.90
50556;DHT22;36508;52.512;13.450;2024-02-26T01:05:14;5.90;99.90
50556;DHT22;36508;52.512;13.450;2024-02-26T01:07:40;5.90;99.90
50556;DHT22;36508;52.512;13.450;2024-02-26T01:10:06;5.80;99.90
50556;DHT22;36508;52.512;13.450;2024-02-26T01:12:33;5.80;99.90
50556;DHT22;36508;52.512;13.450;2024-02-26T01:14:59;5.70;99.90
50556;DHT22;36508;52.512;13.450;2024-02-26T01:17:25;5.80;99.90
50556;DHT22;36508;52.512;13.450;2024-02-26T01:19:51;5.80;99.90
50556;DHT22;36508;52.512;13.450;2024-02-26T01:22:16;5.70;99.90
50556;DHT22;36508;52.512;13.450;2024-02-26T01:24:42;5.80;99.90
50556;DHT22;36508;52.512;13.450;2024-02-26T01:27:07;5.70;99.90
50556;DHT22;36508;52.512;13.450;2024-02-26T01:29:34;5.60;99.90
50556;DHT22;36508;52.512;13.450;2024-02-26T01:32:00;5.60;99.90
50556;DHT22;36508;52.512;13.450;2024-02-26T01:34:25;5.60;99.90
50556;DHT22;36508;52.512;13.450;2024-02-26T01:36:51;5.60;99.90
50556;DHT22;36508;52.512;13.450;2024-02-26T01:39:17;5.60;99.90
50556;DHT22;36508;52.512;13.450;2024-02-26T01:41:43;5.50;99.90
50556;DHT22;36508;52.512;13.450;2024-02-26T01:44:13;5.50;99.90
50556;DHT22;36508;52.512;13.450;2024-02-26T01:46:39;5.40;99.90
50556;DHT22;36508;52.512;13.450;2024-02-26T01:49:06;5.40;99.90
50556;DHT22;36508;52.512;13.450;2024-02-26T01:51:33;5.40;99.90
50556;DHT22;36508;52.512;13.450;2024-02-26T01:54:01;5.50;99.90
50556;DHT22;36508;52.512;13.450;2024-02-26T01:56:28;5.50;99.90
50556;DHT22;36508;52.512;13.450;2024-02-26T01:58:57;5.60;99.90
50556;DHT22;36508;52.512;13.450;2024-02-26T02:01:25;5.60;99.90
50556;DHT22;36508;52.512;13.450;2024-02-26T02:03:52;5.50;99.90
50556;DHT22;36508;52.512;13.450;2024-02-26T02:06:19;5.60;99.90
50556;DHT22;36508;52.512;13.450;2024-02-26T02:08:45;5.50;99.90
50556;DHT22;36508;52.512;13.450;2024-02-26T02:11:13;5.40;99.90
50556;DHT22;36508;52.512;13.450;2024-02-26T02:13:40;5.50;99.90
50556;DHT22;36508;52.512;13.450;2024-02-26T02:16:09;5.40;99.90
50556;DHT22;36508;52.512;13.450;2024-02-26T02:18:35;5.40;99.90
50556;DHT22;36508;52.512;13.450;2024-02-26T02:21:01;5.50;99.90
50556;DHT22;36508;52.512;13.450;2024-02-26T02:23:27;5.50;99.90
50556;DHT22;36508;52.512;13.450;2024-02-26T02:25:52;5.50;99.90
50556;DHT22;36508;52.512;13.450;2024-02-26T02:28:19;5.50;99.90
50556;DHT22;36508;52.512;13.450;2024-02-26T02:30:45;5.30;99.90
50556;DHT22;36508;52.512;13.450;2024-02-26T02:33:10;5.20;99.90
50556;DHT22;36508;52.512;13.450;2024-02-26T02:35:37;5.20;99.90
50556;DHT22;36508;52.512;13.450;2024-02-26T02:38:03;5.30;99.90
50556;DHT22;36508;52.512;13.450;2024-02-26T02:40:29;5.30;99.90
50556;DHT22;36508;52.512;13.450;2024-02-26T02:42:54;5.20;99.90
50556;DHT22;36508;52.512;13.450;2024-02-26T02:45:20;5.20;99.90
50556;DHT22;36508;52.512;13.450;2024-02-26T02:47:45;5.20;99.90
50556;DHT22;36508;52.512;13.450;2024-02-26T02:50:11;5.30;99.90
50556;DHT22;36508;52.512;13.450;2024-02-26T02:52:37;5.10;99.90
50556;DHT22;36508;52.512;13.450;2024-02-26T02:55:02;4.80;99.90
50556;DHT22;36508;52.512;13.450;2024-02-26T02:57:29;4.70;99.90
50556;DHT22;36508;52.512;13.450;2024-02-26T02:59:54;4.80;99.90
50556;DHT22;36508;52.512;13.450;2024-02-26T03:02:20;4.70;99.90
50556;DHT22;36508;52.512;13.450;2024-02-26T03:04:46;5.00;99.90
50556;DHT22;36508;52.512;13.450;2024-02-26T03:07:11;5.10;99.90
50556;DHT22;36508;52.512;13.450;2024-02-26T03:09:37;5.00;99.90
50556;DHT22;36508;52.512;13.450;2024-02-26T03:12:02;5.00;99.90
50556;DHT22;36508;52.512;13.450;2024-02-26T03:14:28;4.90;99.90
50556;DHT22;36508;52.512;13.450;2024-02-26T03:16:54;5.00;99.90
50556;DHT22;36508;52.512;13.450;2024-02-26T03:19:20;4.90;99.90
50556;DHT22;36508;52.512;13.450;2024-02-26T03:21:46;4.90;99.90
50556;DHT22;36508;52.512;13.450;2024-02-26T03:24:11;4.90;99.90
50556;DHT22;36508;52.512;13.450;2024-02-26T03:26:38;5.00;99.90
50556;DHT22;36508;52.512;13.450;2024-02-26T03:29:04;5.00;99.90
50556;DHT22;36508;52.512;13.450;2024-02-26T03:31:29;5.00;99.90
50556;DHT22;36508;52.512;13.450;2024-02-26T03:33:55;4.90;99.90
50556;DHT22;36508;52.512;13.450;2024-02-26T03:36:20;4.90;99.90
50556;DHT22;36508;52.512;13.450;2024-02-26T03:38:47;4.80;99.90
50556;DHT22;36508;52.512;13.450;2024-02-26T03:41:13;4.90;99.90
50556;DHT22;36508;52.512;13.450;2024-02-26T03:43:39;4.90;99.90
50556;DHT22;36508;52.512;13.450;2024-02-26T03:46:07;5.00;99.90
50556;DHT22;36508;52.512;13.450;2024-02-26T03:48:34;5.00;99.90
50556;DHT22;36508;52.512;13.450;2024-02-26T03:51:00;5.00;99.90
50556;DHT22;36508;52.512;13.450;2024-02-26T03:53:25;4.80;99.90
50556;DHT22;36508;52.512;13.450;2024-02-26T03:55:51;4.80;99.90
50556;DHT22;36508;52.512;13.450;2024-02-26T03:58:18;4.70;99.90
50556;DHT22;36508;52.512;13.450;2024-02-26T04:00:43;4.80;99.90
50556;DHT22;36508;52.512;13.450;2024-02-26T04:03:09;4.80;99.90
50556;DHT22;36508;52.512;13.450;2024-02-26T04:05:35;4.80;99.90
50556;DHT22;36508;52.512;13.450;2024-02-26T04:08:00;4.80;99.90
50556;DHT22;36508;52.512;13.450;2024-02-26T04:10:26;4.90;99.90
50556;DHT22;36508;52.512;13.450;2024-02-26T04:12:51;4.80;99.90
50556;DHT22;36508;52.512;13.450;2024-02-26T04:15:17;4.80;99.90
50556;DHT22;36508;52.512;13.450;2024-02-26T04:17:43;4.80;99.90
50556;DHT22;36508;52.512;13.450;2024-02-26T04:20:13;4.80;99.90
50556;DHT22;36508;52.512;13.450;2024-02-26T04:22:39;4.70;99.90
50556;DHT22;36508;52.512;13.450;2024-02-26T04:25:05;4.70;99.90
50556;DHT22;36508;52.512;13.450;2024-02-26T04:27:30;4.80;99.90
50556;DHT22;36508;52.512;13.450;2024-02-26T04:29:56;4.70;99.90
50556;DHT22;36508;52.512;13.450;2024-02-26T04:32:21;4.80;99.90
50556;DHT22;36508;52.512;13.450;2024-02-26T04:34:47;4.80;99.90
50556;DHT22;36508;52.512;13.450;2024-02-26T04:37:13;4.90;99.90
50556;DHT22;36508;52.512;13.450;2024-02-26T04:39:38;4.80;99.90
50556;DHT22;36508;52.512;13.450;2024-02-26T04:42:04;4.80;99.90
50556;DHT22;36508;52.512;13.450;2024-02-26T04:44:30;4.70;99.90
50556;DHT22;36508;52.512;13.450;2024-02-26T04:46:55;4.70;99.90
50556;DHT22;36508;52.512;13.450;2024-02-26T04:49:21;4.70;99.90
50556;DHT22;36508;52.512;13.450;2024-02-26T04:51:47;4.70;99.90
50556;DHT22;36508;52.512;13.450;2024-02-26T04:54:13;4.70;99.90
50556;DHT22;36508;52.512;13.450;2024-02-26T04:56:39;4.60;99.90
50556;DHT22;36508;52.512;13.450;2024-02-26T04:59:04;4.70;99.90
50556;DHT22;36508;52.512;13.450;2024-02-26T05:01:30;4.80;99.90
50556;DHT22;36508;52.512;13.450;2024-02-26T05:03:56;4.80;99.90
50556;DHT22;36508;52.512;13.450;2024-02-26T05:06:21;4.80;99.90
50556;DHT22;36508;52.512;13.450;2024-02-26T05:08:47;4.80;99.90
50556;DHT22;36508;52.512;13.450;2024-02-26T05:11:12;4.80;99.90
50556;DHT22;36508;52.512;13.450;2024-02-26T05:13:38;4.90;99.90
50556;DHT22;36508;52.512;13.450;2024-02-26T05:16:04;4.90;99.90
50556;DHT22;36508;52.512;13.450;2024-02-26T05:18:29;5.00;99.90
50556;DHT22;36508;52.512;13.450;2024-02-26T05:20:55;5.00;99.90
50556;DHT22;36508;52.512;13.450;2024-02-26T05:23:20;5.00;99.90
50556;DHT22;36508;52.512;13.450;2024-02-26T05:25:46;4.80;99.90
50556;DHT22;36508;52.512;13.450;2024-02-26T05:28:13;4.80;99.90
50556;DHT22;36508;52.512;13.450;2024-02-26T05:30:41;4.70;99.90
50556;DHT22;36508;52.512;13.450;2024-02-26T05:33:06;4.80;99.90
50556;DHT22;36508;52.512;13.450;2024-02-26T05:35:32;4.80;99.90
50556;DHT22;36508;52.512;13.450;2024-02-26T05:37:58;4.80;99.90
50556;DHT22;36508;52.512;13.450;2024-02-26T05:40:23;4.80;99.90
50556;DHT22;36508;52.512;13.450;2024-02-26T05:42:49;4.70;99.90
50556;DHT22;36508;52.512;13.450;2024-02-26T05:45:14;4.70;99.90
50556;DHT22;36508;52.512;13.450;2024-02-26T05:47:40;4.60;99.90
50556;DHT22;36508;52.512;13.450;2024-02-26T05:50:11;4.50;99.90
50556;DHT22;36508;52.512;13.450;2024-02-26T05:52:40;4.50;99.90
50556;DHT22;36508;52.512;13.450;2024-02-26T05:55:06;4.60;99.90
50556;DHT22;36508;52.512;13.450;2024-02-26T05:57:32;4.70;99.90
50556;DHT22;36508;52.512;13.450;2024-02-26T05:59:58;4.70;99.90
50556;DHT22;36508;52.512;13.450;2024-02-26T06:02:31;4.70;99.90
50556;DHT22;36508;52.512;13.450;2024-02-26T06:04:57;4.70;99.90
50556;DHT22;36508;52.512;13.450;2024-02-26T06:07:23;4.70;99.90
50556;DHT22;36508;52.512;13.450;2024-02-26T06:09:48;4.80;99.90
50556;DHT22;36508;52.512;13.450;2024-02-26T06:12:14;4.80;99.90
50556;DHT22;36508;52.512;13.450;2024-02-26T06:14:41;4.90;99.90
50556;DHT22;36508;52.512;13.450;2024-02-26T06:17:07;4.90;99.90
50556;DHT22;36508;52.512;13.450;2024-02-26T06:19:32;5.00;99.90
50556;DHT22;36508;52.512;13.450;2024-02-26T06:21:58;5.00;99.90
50556;DHT22;36508;52.512;13.450;2024-02-26T06:24:24;5.10;99.90
50556;DHT22;36508;52.512;13.450;2024-02-26T06:26:49;5.00;99.90
50556;DHT22;36508;52.512;13.450;2024-02-26T06:29:15;4.90;99.90
50556;DHT22;36508;52.512;13.450;2024-02-26T06:31:41;5.00;99.90
50556;DHT22;36508;52.512;13.450;2024-02-26T06:34:06;5.10;99.90
50556;DHT22;36508;52.512;13.450;2024-02-26T06:36:32;5.10;99.90
50556;DHT22;36508;52.512;13.450;2024-02-26T06:38:58;5.20;99.90
50556;DHT22;36508;52.512;13.450;2024-02-26T06:41:24;5.30;99.90
50556;DHT22;36508;52.512;13.450;2024-02-26T06:43:55;5.40;99.90
50556;DHT22;36508;52.512;13.450;2024-02-26T06:46:22;5.50;99.90
50556;DHT22;36508;52.512;13.450;2024-02-26T06:48:48;5.50;99.90
50556;DHT22;36508;52.512;13.450;2024-02-26T06:51:14;5.60;99.90
50556;DHT22;36508;52.512;13.450;2024-02-26T06:53:40;5.60;99.90
50556;DHT22;36508;52.512;13.450;2024-02-26T06:56:06;5.60;99.90
50556;DHT22;36508;52.512;13.450;2024-02-26T06:58:31;5.60;99.90
50556;DHT22;36508;52.512;13.450;2024-02-26T07:00:57;5.60;99.90
50556;DHT22;36508;52.512;13.450;2024-02-26T07:03:22;5.60;99.90
50556;DHT22;36508;52.512;13.450;2024-02-26T07:05:49;5.60;99.90
50556;DHT22;36508;52.512;13.450;2024-02-26T07:08:15;5.60;99.90
50556;DHT22;36508;52.512;13.450;2024-02-26T07:10:41;5.50;99.90
50556;DHT22;36508;52.512;13.450;2024-02-26T07:13:07;5.70;99.90
50556;DHT22;36508;52.512;13.450;2024-02-26T07:15:32;5.70;99.90
50556;DHT22;36508;52.512;13.450;2024-02-26T07:17:58;5.60;99.90
50556;DHT22;36508;52.512;13.450;2024-02-26T07:20:31;5.60;99.90
50556;DHT22;36508;52.512;13.450;2024-02-26T07:22:57;5.60;99.90
50556;DHT22;36508;52.512;13.450;2024-02-26T07:25:23;5.60;99.90
50556;DHT22;36508;52.512;13.450;2024-02-26T07:27:50;5.70;99.90
50556;DHT22;36508;52.512;13.450;2024-02-26T07:30:15;5.70;99.90
50556;DHT22;36508;52.512;13.450;2024-02-26T07:32:42;5.90;99.90
50556;DHT22;36508;52.512;13.450;2024-02-26T07:35:08;6.00;99.90
50556;DHT22;36508;52.512;13.450;2024-02-26T07:37:34;6.00;99.90
50556;DHT22;36508;52.512;13.450;2024-02-26T07:40:00;6.10;99.90
50556;DHT22;36508;52.512;13.450;2024-02-26T07:42:26;6.30;99.90
50556;DHT22;36508;52.512;13.450;2024-02-26T07:44:51;6.40;99.90
50556;DHT22;36508;52.512;13.450;2024-02-26T07:47:18;6.40;99.90
50556;DHT22;36508;52.512;13.450;2024-02-26T07:49:44;6.50;99.90
50556;DHT22;36508;52.512;13.450;2024-02-26T07:52:10;6.60;99.90
50556;DHT22;36508;52.512;13.450;2024-02-26T07:54:36;6.70;99.90
50556;DHT22;36508;52.512;13.450;2024-02-26T07:57:02;6.90;99.90
50556;DHT22;36508;52.512;13.450;2024-02-26T07:59:30;6.80;99.90
50556;DHT22;36508;52.512;13.450;2024-02-26T08:01:56;6.90;99.90
50556;DHT22;36508;52.512;13.450;2024-02-26T08:04:22;7.10;99.90
50556;DHT22;36508;52.512;13.450;2024-02-26T08:06:47;7.00;99.90
50556;DHT22;36508;52.512;13.450;2024-02-26T08:09:13;7.10;99.90
50556;DHT22;36508;52.512;13.450;2024-02-26T08:11:38;7.20;99.90
50556;DHT22;36508;52.512;13.450;2024-02-26T08:14:04;7.20;99.90
50556;DHT22;36508;52.512;13.450;2024-02-26T08:16:39;7.30;99.90
50556;DHT22;36508;52.512;13.450;2024-02-26T08:19:05;7.40;99.90
50556;DHT22;36508;52.512;13.450;2024-02-26T08:21:30;7.50;99.90
50556;DHT22;36508;52.512;13.450;2024-02-26T08:23:56;7.60;99.90
50556;DHT22;36508;52.512;13.450;2024-02-26T08:26:22;7.70;99.90
50556;DHT22;36508;52.512;13.450;2024-02-26T08:28:53;7.80;99.90
50556;DHT22;36508;52.512;13.450;2024-02-26T08:34:01;7.90;99.90
50556;DHT22;36508;52.512;13.450;2024-02-26T08:36:26;8.00;99.90
50556;DHT22;36508;52.512;13.450;2024-02-26T08:38:52;8.10;99.90
50556;DHT22;36508;52.512;13.450;2024-02-26T08:41:17;8.20;99.90
50556;DHT22;36508;52.512;13.450;2024-02-26T08:43:43;8.30;99.90
50556;DHT22;36508;52.512;13.450;2024-02-26T08:46:09;8.40;99.90
50556;DHT22;36508;52.512;13.450;2024-02-26T08:48:35;8.20;99.90
50556;DHT22;36508;52.512;13.450;2024-02-26T08:51:05;8.20;99.90
50556;DHT22;36508;52.512;13.450;2024-02-26T08:53:32;8.40;99.90
50556;DHT22;36508;52.512;13.450;2024-02-26T08:55:57;8.60;99.90
50556;DHT22;36508;52.512;13.450;2024-02-26T08:58:23;8.80;99.90
50556;DHT22;36508;52.512;13.450;2024-02-26T09:00:48;9.00;99.90
50556;DHT22;36508;52.512;13.450;2024-02-26T09:03:14;9.10;99.90
50556;DHT22;36508;52.512;13.450;2024-02-26T09:05:39;9.20;99.90
50556;DHT22;36508;52.512;13.450;2024-02-26T09:08:05;9.30;99.90
50556;DHT22;36508;52.512;13.450;2024-02-26T09:10:31;9.40;99.90
50556;DHT22;36508;52.512;13.450;2024-02-26T09:12:58;9.50;99.90
50556;DHT22;36508;52.512;13.450;2024-02-26T09:15:24;9.50;99.90
50556;DHT22;36508;52.512;13.450;2024-02-26T09:17:49;9.30;99.90
50556;DHT22;36508;52.512;13.450;2024-02-26T09:20:15;9.40;99.90
50556;DHT22;36508;52.512;13.450;2024-02-26T09:22:45;9.40;99.90
50556;DHT22;36508;52.512;13.450;2024-02-26T09:25:11;9.20;99.90
50556;DHT22;36508;52.512;13.450;2024-02-26T09:27:36;9.30;99.90
50556;DHT22;36508;52.512;13.450;2024-02-26T09:30:03;9.40;99.90
50556;DHT22;36508;52.512;13.450;2024-02-26T09:32:30;9.40;99.90
50556;DHT22;36508;52.512;13.450;2024-02-26T09:34:55;9.50;99.90
50556;DHT22;36508;52.512;13.450;2024-02-26T09:37:21;9.30;99.90
50556;DHT22;36508;52.512;13.450;2024-02-26T09:39:47;9.30;99.90
50556;DHT22;36508;52.512;13.450;2024-02-26T09:42:13;9.50;99.90
50556;DHT22;36508;52.512;13.450;2024-02-26T09:44:40;9.60;99.90
50556;DHT22;36508;52.512;13.450;2024-02-26T09:47:09;9.60;99.90
50556;DHT22;36508;52.512;13.450;2024-02-26T09:49:36;9.70;99.90
50556;DHT22;36508;52.512;13.450;2024-02-26T09:52:04;9.80;99.90
50556;DHT22;36508;52.512;13.450;2024-02-26T09:54:31;10.00;99.90
50556;DHT22;36508;52.512;13.450;2024-02-26T09:59:27;10.60;99.90
50556;DHT22;36508;52.512;13.450;2024-02-26T10:01:53;10.60;99.90
50556;DHT22;36508;52.512;13.450;2024-02-26T10:04:20;10.70;99.90
50556;DHT22;36508;52.512;13.450;2024-02-26T10:06:47;10.80;99.90
50556;DHT22;36508;52.512;13.450;2024-02-26T10:09:12;10.90;99.90
50556;DHT22;36508;52.512;13.450;2024-02-26T10:11:41;10.80;99.90
50556;DHT22;36508;52.512;13.450;2024-02-26T10:14:08;10.70;99.90
50556;DHT22;36508;52.512;13.450;2024-02-26T10:16:34;10.90;99.90
50556;DHT22;36508;52.512;13.450;2024-02-26T10:19:00;11.30;99.90
50556;DHT22;36508;52.512;13.450;2024-02-26T10:21:26;11.60;99.90
50556;DHT22;36508;52.512;13.450;2024-02-26T10:23:52;12.00;99.90
50556;DHT22;36508;52.512;13.450;2024-02-26T10:26:17;12.00;99.90
50556;DHT22;36508;52.512;13.450;2024-02-26T10:28:44;12.40;99.90
50556;DHT22;36508;52.512;13.450;2024-02-26T10:31:11;12.40;99.90
50556;DHT22;36508;52.512;13.450;2024-02-26T10:36:14;12.90;99.90
50556;DHT22;36508;52.512;13.450;2024-02-26T10:38:40;14.10;99.90
50556;DHT22;36508;52.512;13.450;2024-02-26T10:41:13;15.30;99.90
50556;DHT22;36508;52.512;13.450;2024-02-26T10:43:39;16.90;99.90
50556;DHT22;36508;52.512;13.450;2024-02-26T10:46:05;18.00;99.90
50556;DHT22;36508;52.512;13.450;2024-02-26T10:48:32;18.70;99.90
50556;DHT22;36508;52.512;13.450;2024-02-26T10:50:57;19.00;99.90
50556;DHT22;36508;52.512;13.450;2024-02-26T10:53:26;18.80;99.90
50556;DHT22;36508;52.512;13.450;2024-02-26T10:56:04;19.20;99.90
50556;DHT22;36508;52.512;13.450;2024-02-26T10:58:33;20.20;99.90
50556;DHT22;36508;52.512;13.450;2024-02-26T11:01:00;20.80;99.90
50556;DHT22;36508;52.512;13.450;2024-02-26T11:03:26;20.90;99.90
50556;DHT22;36508;52.512;13.450;2024-02-26T11:05:53;21.30;99.90
50556;DHT22;36508;52.512;13.450;2024-02-26T11:08:19;22.30;99.90
50556;DHT22;36508;52.512;13.450;2024-02-26T11:10:53;22.40;99.90
50556;DHT22;36508;52.512;13.450;2024-02-26T11:13:19;21.80;99.90
50556;DHT22;36508;52.512;13.450;2024-02-26T11:15:48;21.20;99.90
50556;DHT22;36508;52.512;13.450;2024-02-26T11:18:15;20.40;99.90
50556;DHT22;36508;52.512;13.450;2024-02-26T11:20:44;20.20;99.90
50556;DHT22;36508;52.512;13.450;2024-02-26T11:23:11;20.60;99.90
50556;DHT22;36508;52.512;13.450;2024-02-26T11:25:37;20.90;99.90
50556;DHT22;36508;52.512;13.450;2024-02-26T11:28:06;20.90;99.90
50556;DHT22;36508;52.512;13.450;2024-02-26T11:30:36;21.30;99.90
50556;DHT22;36508;52.512;13.450;2024-02-26T11:33:13;21.40;99.90
50556;DHT22;36508;52.512;13.450;2024-02-26T11:35:40;20.60;99.90
50556;DHT22;36508;52.512;13.450;2024-02-26T11:38:06;20.70;99.90
50556;DHT22;36508;52.512;13.450;2024-02-26T11:40:33;21.50;99.90
50556;DHT22;36508;52.512;13.450;2024-02-26T11:42:59;21.70;99.90
50556;DHT22;36508;52.512;13.450;2024-02-26T11:48:14;20.80;99.90
50556;DHT22;36508;52.512;13.450;2024-02-26T11:50:42;20.70;99.90
50556;DHT22;36508;52.512;13.450;2024-02-26T11:53:24;20.10;99.90
50556;DHT22;36508;52.512;13.450;2024-02-26T12:01:45;20.60;99.90
50556;DHT22;36508;52.512;13.450;2024-02-26T12:04:23;20.60;99.90
50556;DHT22;36508;52.512;13.450;2024-02-26T12:07:01;20.30;99.90
50556;DHT22;36508;52.512;13.450;2024-02-26T12:09:38;19.40;99.90
50556;DHT22;36508;52.512;13.450;2024-02-26T12:12:05;19.00;99.90
50556;DHT22;36508;52.512;13.450;2024-02-26T12:14:40;18.90;99.90
50556;DHT22;36508;52.512;13.450;2024-02-26T12:17:07;19.00;99.90
50556;DHT22;36508;52.512;13.450;2024-02-26T12:19:40;19.00;99.90
50556;DHT22;36508;52.512;13.450;2024-02-26T12:22:07;18.70;99.90
50556;DHT22;36508;52.512;13.450;2024-02-26T12:24:33;18.70;99.90
50556;DHT22;36508;52.512;13.450;2024-02-26T12:26:59;19.30;99.90
50556;DHT22;36508;52.512;13.450;2024-02-26T12:29:24;19.70;99.90
50556;DHT22;36508;52.512;13.450;2024-02-26T12:31:50;19.90;99.90
50556;DHT22;36508;52.512;13.450;2024-02-26T12:34:16;20.40;99.90
50556;DHT22;36508;52.512;13.450;2024-02-26T12:36:42;20.50;99.90
50556;DHT22;36508;52.512;13.450;2024-02-26T12:39:08;20.40;99.90
50556;DHT22;36508;52.512;13.450;2024-02-26T12:41:35;20.60;99.90
50556;DHT22;36508;52.512;13.450;2024-02-26T12:44:01;21.20;99.90
50556;DHT22;36508;52.512;13.450;2024-02-26T12:46:27;22.00;99.80
50556;DHT22;36508;52.512;13.450;2024-02-26T12:48:55;21.80;99.80
50556;DHT22;36508;52.512;13.450;2024-02-26T12:51:23;21.70;99.90
50556;DHT22;36508;52.512;13.450;2024-02-26T12:53:49;20.70;99.70
50556;DHT22;36508;52.512;13.450;2024-02-26T12:56:17;20.10;99.90
50556;DHT22;36508;52.512;13.450;2024-02-26T12:58:44;20.30;99.90
50556;DHT22;36508;52.512;13.450;2024-02-26T13:01:14;19.60;99.90
50556;DHT22;36508;52.512;13.450;2024-02-26T13:03:41;19.50;99.90
50556;DHT22;36508;52.512;13.450;2024-02-26T13:06:07;19.40;99.90
50556;DHT22;36508;52.512;13.450;2024-02-26T13:08:33;19.60;99.80
50556;DHT22;36508;52.512;13.450;2024-02-26T13:10:59;18.90;99.90
50556;DHT22;36508;52.512;13.450;2024-02-26T13:13:25;18.60;99.90
50556;DHT22;36508;52.512;13.450;2024-02-26T13:16:04;18.10;99.90
50556;DHT22;36508;52.512;13.450;2024-02-26T13:18:31;17.90;99.90
50556;DHT22;36508;52.512;13.450;2024-02-26T13:21:10;17.80;99.90
50556;DHT22;36508;52.512;13.450;2024-02-26T13:23:37;17.50;99.90
50556;DHT22;36508;52.512;13.450;2024-02-26T13:26:03;17.10;99.90
50556;DHT22;36508;52.512;13.450;2024-02-26T13:28:29;16.60;99.90
50556;DHT22;36508;52.512;13.450;2024-02-26T13:30:56;16.30;99.90
50556;DHT22;36508;52.512;13.450;2024-02-26T13:33:22;16.00;99.90
50556;DHT22;36508;52.512;13.450;2024-02-26T13:35:48;15.60;99.90
50556;DHT22;36508;52.512;13.450;2024-02-26T13:38:14;15.40;99.90
50556;DHT22;36508;52.512;13.450;2024-02-26T13:40:40;15.40;99.90
50556;DHT22;36508;52.512;13.450;2024-02-26T13:43:05;15.50;99.90
50556;DHT22;36508;52.512;13.450;2024-02-26T13:45:34;15.60;99.90
50556;DHT22;36508;52.512;13.450;2024-02-26T13:48:04;15.50;99.90
50556;DHT22;36508;52.512;13.450;2024-02-26T13:50:30;15.30;99.90
50556;DHT22;36508;52.512;13.450;2024-02-26T13:52:56;15.20;99.90
50556;DHT22;36508;52.512;13.450;2024-02-26T13:55:25;15.00;99.90
50556;DHT22;36508;52.512;13.450;2024-02-26T13:57:52;14.60;99.90
50556;DHT22;36508;52.512;13.450;2024-02-26T14:00:19;14.50;99.90
50556;DHT22;36508;52.512;13.450;2024-02-26T14:02:45;14.40;99.90
50556;DHT22;36508;52.512;13.450;2024-02-26T14:05:11;14.20;99.90
50556;DHT22;36508;52.512;13.450;2024-02-26T14:07:36;14.20;99.90
50556;DHT22;36508;52.512;13.450;2024-02-26T14:10:02;14.20;99.90
50556;DHT22;36508;52.512;13.450;2024-02-26T14:12:28;14.20;99.90
50556;DHT22;36508;52.512;13.450;2024-02-26T14:14:56;14.20;99.90
50556;DHT22;36508;52.512;13.450;2024-02-26T14:17:24;14.20;99.90
50556;DHT22;36508;52.512;13.450;2024-02-26T14:19:49;14.10;99.90
50556;DHT22;36508;52.512;13.450;2024-02-26T14:22:15;14.00;99.90
50556;DHT22;36508;52.512;13.450;2024-02-26T14:24:42;14.00;99.90
50556;DHT22;36508;52.512;13.450;2024-02-26T14:27:13;14.10;99.90
50556;DHT22;36508;52.512;13.450;2024-02-26T14:29:43;14.20;99.90
50556;DHT22;36508;52.512;13.450;2024-02-26T14:32:09;14.10;99.90
50556;DHT22;36508;52.512;13.450;2024-02-26T14:34:35;13.70;99.90
50556;DHT22;36508;52.512;13.450;2024-02-26T14:37:01;13.50;99.90
50556;DHT22;36508;52.512;13.450;2024-02-26T14:39:27;13.40;99.90
50556;DHT22;36508;52.512;13.450;2024-02-26T14:41:52;13.30;99.90
50556;DHT22;36508;52.512;13.450;2024-02-26T14:44:18;13.30;99.90
50556;DHT22;36508;52.512;13.450;2024-02-26T14:46:44;13.40;99.90
50556;DHT22;36508;52.512;13.450;2024-02-26T14:49:09;13.30;99.90
50556;DHT22;36508;52.512;13.450;2024-02-26T14:51:36;13.40;99.90
50556;DHT22;36508;52.512;13.450;2024-02-26T14:54:02;13.20;99.90
50556;DHT22;36508;52.512;13.450;2024-02-26T14:56:28;13.30;99.90
50556;DHT22;36508;52.512;13.450;2024-02-26T14:58:53;13.30;99.90
50556;DHT22;36508;52.512;13.450;2024-02-26T15:01:19;13.30;99.90
50556;DHT22;36508;52.512;13.450;2024-02-26T15:03:44;13.30;99.90
50556;DHT22;36508;52.512;13.450;2024-02-26T15:06:10;13.30;99.90
50556;DHT22;36508;52.512;13.450;2024-02-26T15:08:35;13.20;99.90
50556;DHT22;36508;52.512;13.450;2024-02-26T15:11:01;13.10;99.90
50556;DHT22;36508;52.512;13.450;2024-02-26T15:13:27;13.00;99.90
50556;DHT22;36508;52.512;13.450;2024-02-26T15:15:52;13.10;99.90
50556;DHT22;36508;52.512;13.450;2024-02-26T15:18:18;13.10;99.90
50556;DHT22;36508;52.512;13.450;2024-02-26T15:20:44;13.00;99.90
50556;DHT22;36508;52.512;13.450;2024-02-26T15:23:11;12.90;99.90
50556;DHT22;36508;52.512;13.450;2024-02-26T15:25:36;12.90;99.90
50556;DHT22;36508;52.512;13.450;2024-02-26T15:28:02;12.80;99.90
50556;DHT22;36508;52.512;13.450;2024-02-26T15:30:28;12.70;99.90
50556;DHT22;36508;52.512;13.450;2024-02-26T15:32:55;12.60;99.90
50556;DHT22;36508;52.512;13.450;2024-02-26T15:35:21;12.60;99.90
50556;DHT22;36508;52.512;13.450;2024-02-26T15:37:46;12.60;99.90
50556;DHT22;36508;52.512;13.450;2024-02-26T15:40:12;12.60;99.90